Time;durP1;ratioP1;P1;durP2;ratioP2;P2;SDS_P1;SDS_P2;PMS_P1;PMS_P2;Temp;Humidity;BMP_temperature;BMP_pressure;BME280_temperature;BME280_humidity;BME280_pressure;Samples;Min_cycle;Max_cycle;Signal;HPM_P1;HPM_P2
2021/09/15 00:01:04;;;;;;;12.90;6.68;;;;;;;;;;4745703;29;52318;-64
2021/09/15 00:03:30;;;;;;;10.30;6.15;;;;;;;;;;4745636;29;52817;-61
2021/09/15 00:05:56;;;;;;;11.02;5.85;;;;;;;;;;4746476;29;52304;-62
2021/09/15 00:08:22;;;;;;;10.95;7.00;;;;;;;;;;4745159;29;52326;-63
2021/09/15 00:10:48;;;;;;;8.95;5.85;;;;;;;;;;4745286;29;53733;-62
2021/09/15 00:13:14;;;;;;;14.88;5.93;;;;;;;;;;4745373;29;52291;-62
2021/09/15 00:15:40;;;;;;;10.00;5.88;;;;;;;;;;4742903;29;52221;-63
2021/09/15 00:18:06;;;;;;;14.85;6.43;;;;;;;;;;4743444;29;52165;-62
2021/09/15 00:20:32;;;;;;;11.63;6.40;;;;;;;;;;4743589;29;52359;-62
2021/09/15 00:22:58;;;;;;;7.45;6.05;;;;;;;;;;4747440;29;52246;-62
2021/09/15 00:25:24;;;;;;;12.15;6.38;;;;;;;;;;4756259;29;52835;-62
2021/09/15 00:27:50;;;;;;;8.77;6.70;;;;;;;;;;4761354;29;52206;-62
2021/09/15 00:30:16;;;;;;;14.65;7.20;;;;;;;;;;4761204;29;52344;-62
2021/09/15 00:32:42;;;;;;;9.77;6.70;;;;;;;;;;4760454;29;52368;-63
2021/09/15 00:35:09;;;;;;;7.13;5.88;;;;;;;;;;4758053;29;52534;-62
2021/09/15 00:37:35;;;;;;;7.32;6.35;;;;;;;;;;4748975;29;52475;-63
2021/09/15 00:40:02;;;;;;;10.15;7.43;;;;;;;;;;4761541;29;52199;-62
2021/09/15 00:42:28;;;;;;;10.80;6.82;;;;;;;;;;4761439;29;53933;-61
2021/09/15 00:44:54;;;;;;;10.68;6.45;;;;;;;;;;4764073;29;52246;-62
2021/09/15 00:47:20;;;;;;;12.07;7.43;;;;;;;;;;4762557;29;52255;-62
2021/09/15 00:49:46;;;;;;;10.15;7.03;;;;;;;;;;4762686;29;52295;-63
2021/09/15 00:52:12;;;;;;;9.23;6.82;;;;;;;;;;4763093;29;52288;-63
2021/09/15 00:54:38;;;;;;;11.40;6.53;;;;;;;;;;4763140;29;52320;-62
2021/09/15 00:57:04;;;;;;;17.45;8.32;;;;;;;;;;4762867;29;52288;-63
2021/09/15 00:59:29;;;;;;;12.20;7.57;;;;;;;;;;4762491;29;52832;-63
2021/09/15 01:01:55;;;;;;;12.45;7.80;;;;;;;;;;4763502;29;52593;-62
2021/09/15 01:04:22;;;;;;;13.52;8.23;;;;;;;;;;4763017;29;53740;-61
2021/09/15 01:06:48;;;;;;;13.93;7.45;;;;;;;;;;4763148;29;52295;-61
2021/09/15 01:09:14;;;;;;;14.57;8.00;;;;;;;;;;4746203;29;52236;-61
2021/09/15 01:11:42;;;;;;;12.82;7.30;;;;;;;;;;4759943;29;52293;-62
2021/09/15 01:14:10;;;;;;;13.23;8.10;;;;;;;;;;4760042;29;52618;-62
2021/09/15 01:16:59;;;;;;;12.23;8.02;;;;;;;;;;4746814;29;52295;-62
2021/09/15 01:19:25;;;;;;;13.07;7.90;;;;;;;;;;4759151;29;53516;-62
2021/09/15 01:21:52;;;;;;;13.27;8.20;;;;;;;;;;4762834;29;52211;-62
2021/09/15 01:24:18;;;;;;;14.60;8.00;;;;;;;;;;4762561;29;52235;-63
2021/09/15 01:26:44;;;;;;;13.38;7.68;;;;;;;;;;4762291;29;53671;-62
2021/09/15 01:29:19;;;;;;;16.38;7.88;;;;;;;;;;4761074;29;52266;-61
2021/09/15 01:32:08;;;;;;;13.88;8.23;;;;;;;;;;4759275;29;52553;-63
2021/09/15 01:34:43;;;;;;;20.15;7.68;;;;;;;;;;4759896;29;52349;-61
2021/09/15 01:37:11;;;;;;;15.20;7.45;;;;;;;;;;4760577;29;52270;-62
2021/09/15 01:39:37;;;;;;;11.95;6.80;;;;;;;;;;4759637;29;52467;-62
2021/09/15 01:42:05;;;;;;;12.75;7.25;;;;;;;;;;4761061;29;52531;-62
2021/09/15 01:44:38;;;;;;;10.65;7.53;;;;;;;;;;4762584;29;54020;-61
2021/09/15 01:47:05;;;;;;;;;;;;;;;;;;4763363;29;52407;-63
2021/09/15 01:49:33;;;;;;;11.20;7.55;;;;;;;;;;4763166;29;53841;-61
2021/09/15 01:51:59;;;;;;;12.68;8.73;;;;;;;;;;4762734;29;52270;-62
2021/09/15 01:54:26;;;;;;;15.43;7.60;;;;;;;;;;4762263;29;52238;-63
2021/09/15 01:56:52;;;;;;;14.77;8.63;;;;;;;;;;4763446;29;52047;-62
2021/09/15 01:59:18;;;;;;;11.77;8.57;;;;;;;;;;4762617;29;51877;-62
2021/09/15 02:01:44;;;;;;;12.32;7.55;;;;;;;;;;4762567;29;52315;-62
2021/09/15 02:04:10;;;;;;;13.32;7.85;;;;;;;;;;4762946;29;52315;-62
2021/09/15 02:06:36;;;;;;;10.68;7.13;;;;;;;;;;4778420;29;52180;-61
2021/09/15 02:09:04;;;;;;;16.35;8.57;;;;;;;;;;4781774;29;52297;-65
2021/09/15 02:11:30;;;;;;;12.50;8.20;;;;;;;;;;4779865;29;54323;-64
2021/09/15 02:13:56;;;;;;;11.43;6.78;;;;;;;;;;4780684;29;52338;-63
2021/09/15 02:16:23;;;;;;;15.27;7.60;;;;;;;;;;4779195;29;52372;-63
2021/09/15 02:18:49;;;;;;;20.17;8.13;;;;;;;;;;4780050;29;52321;-63
2021/09/15 02:21:15;;;;;;;13.73;7.63;;;;;;;;;;4779104;29;52309;-64
2021/09/15 02:23:41;;;;;;;14.32;8.02;;;;;;;;;;4780292;29;52362;-62
2021/09/15 02:26:08;;;;;;;12.68;7.65;;;;;;;;;;4780644;29;52295;-61
2021/09/15 02:28:34;;;;;;;12.30;8.13;;;;;;;;;;4769288;29;52263;-63
2021/09/15 02:31:00;;;;;;;10.45;7.40;;;;;;;;;;4761067;29;52456;-64
2021/09/15 02:33:26;;;;;;;12.95;7.85;;;;;;;;;;4761591;29;53388;-62
2021/09/15 02:35:52;;;;;;;11.13;7.80;;;;;;;;;;4734367;29;52260;-62
2021/09/15 02:38:18;;;;;;;10.32;7.00;;;;;;;;;;4726028;29;52111;-63
2021/09/15 02:40:44;;;;;;;13.25;7.22;;;;;;;;;;4726163;29;52234;-62
2021/09/15 02:43:10;;;;;;;12.18;7.75;;;;;;;;;;4726813;29;53245;-64
2021/09/15 02:45:35;;;;;;;11.43;6.57;;;;;;;;;;4690317;29;52608;-62
2021/09/15 02:48:01;;;;;;;12.10;7.18;;;;;;;;;;4725417;29;52339;-62
2021/09/15 02:50:27;;;;;;;9.13;6.70;;;;;;;;;;4725868;29;52223;-63
2021/09/15 02:52:53;;;;;;;11.13;7.28;;;;;;;;;;4725416;29;52332;-63
2021/09/15 02:55:19;;;;;;;9.02;6.68;;;;;;;;;;4725692;29;53640;-62
2021/09/15 02:57:45;;;;;;;6.63;5.63;;;;;;;;;;4725928;29;52288;-62
2021/09/15 03:00:12;;;;;;;8.77;6.22;;;;;;;;;;4725933;29;52942;-63
2021/09/15 03:02:38;;;;;;;10.55;6.10;;;;;;;;;;4725310;29;52314;-61
2021/09/15 03:05:05;;;;;;;10.18;6.03;;;;;;;;;;4724963;29;53888;-62
2021/09/15 03:07:31;;;;;;;12.93;6.30;;;;;;;;;;4730408;29;52221;-62
2021/09/15 03:09:57;;;;;;;13.30;5.95;;;;;;;;;;4726454;29;52409;-63
2021/09/15 03:12:23;;;;;;;9.55;5.75;;;;;;;;;;4743759;29;52302;-62
2021/09/15 03:14:49;;;;;;;10.57;5.88;;;;;;;;;;4742082;29;52413;-63
2021/09/15 03:17:15;;;;;;;8.30;5.78;;;;;;;;;;4741596;29;52437;-62
2021/09/15 03:19:41;;;;;;;10.68;6.00;;;;;;;;;;4741249;29;52275;-62
2021/09/15 03:22:07;;;;;;;8.68;5.45;;;;;;;;;;4741223;29;52275;-64
2021/09/15 03:24:33;;;;;;;10.90;5.68;;;;;;;;;;4742437;29;52265;-62
2021/09/15 03:27:03;;;;;;;14.63;5.28;;;;;;;;;;4741409;29;53682;-62
2021/09/15 03:29:31;;;;;;;6.93;4.78;;;;;;;;;;4700684;29;60962;-62
2021/09/15 03:31:57;;;;;;;9.00;5.07;;;;;;;;;;4722011;29;52256;-63
2021/09/15 03:34:23;;;;;;;6.47;4.55;;;;;;;;;;4735445;29;52897;-63
2021/09/15 03:36:49;;;;;;;11.32;4.53;;;;;;;;;;4746175;29;52292;-63
2021/09/15 03:39:15;;;;;;;6.45;4.38;;;;;;;;;;4684729;29;53075;-62
2021/09/15 03:41:41;;;;;;;10.38;4.32;;;;;;;;;;4743819;29;52464;-63
2021/09/15 03:44:07;;;;;;;6.50;3.78;;;;;;;;;;4730210;29;52242;-63
2021/09/15 03:46:33;;;;;;;4.57;3.70;;;;;;;;;;4746969;29;52174;-63
2021/09/15 03:48:59;;;;;;;8.40;3.90;;;;;;;;;;4744847;29;53851;-63
2021/09/15 03:51:26;;;;;;;8.00;3.88;;;;;;;;;;4745515;29;53363;-64
2021/09/15 03:53:52;;;;;;;5.72;3.45;;;;;;;;;;4746007;29;52287;-62
2021/09/15 03:56:18;;;;;;;5.13;3.20;;;;;;;;;;4744913;29;52203;-63
2021/09/15 03:58:44;;;;;;;7.15;2.97;;;;;;;;;;4745900;29;52204;-63
2021/09/15 04:01:10;;;;;;;7.47;3.15;;;;;;;;;;4745653;29;53178;-65
2021/09/15 04:03:39;;;;;;;3.70;2.83;;;;;;;;;;4740267;29;52375;-63
2021/09/15 04:06:05;;;;;;;5.32;3.50;;;;;;;;;;4746488;29;52355;-64
2021/09/15 04:08:31;;;;;;;8.45;2.92;;;;;;;;;;4745987;29;52024;-63
2021/09/15 04:10:57;;;;;;;8.07;3.00;;;;;;;;;;4745054;29;53254;-64
2021/09/15 04:13:23;;;;;;;5.22;2.72;;;;;;;;;;4744455;29;52328;-64
2021/09/15 04:15:49;;;;;;;10.98;2.28;;;;;;;;;;4742986;29;52202;-63
2021/09/15 04:18:15;;;;;;;3.78;2.20;;;;;;;;;;4745039;29;52383;-63
2021/09/15 04:20:43;;;;;;;6.43;2.00;;;;;;;;;;4744442;29;52244;-64
2021/09/15 04:23:34;;;;;;;10.40;2.17;;;;;;;;;;4744396;29;53293;-63
2021/09/15 04:31:25;;;;;;;7.78;1.80;;;;;;;;;;4745504;29;52131;-64
2021/09/15 04:33:52;;;;;;;9.02;1.70;;;;;;;;;;4745085;29;52934;-65
2021/09/15 04:36:19;;;;;;;10.38;1.55;;;;;;;;;;4744506;29;52302;-64
2021/09/15 04:38:45;;;;;;;8.85;1.77;;;;;;;;;;4744113;29;52571;-65
2021/09/15 04:41:11;;;;;;;3.53;1.48;;;;;;;;;;4744853;29;52346;-64
2021/09/15 04:43:38;;;;;;;5.80;1.65;;;;;;;;;;4744709;29;52224;-65
2021/09/15 04:46:04;;;;;;;8.55;1.77;;;;;;;;;;4744888;29;53119;-62
2021/09/15 04:48:30;;;;;;;3.47;1.40;;;;;;;;;;4745126;29;51972;-63
2021/09/15 04:50:56;;;;;;;4.20;1.40;;;;;;;;;;4743383;29;52272;-63
2021/09/15 04:53:22;;;;;;;4.50;1.60;;;;;;;;;;4744924;29;52373;-62
2021/09/15 04:55:48;;;;;;;3.47;1.63;;;;;;;;;;4742687;29;52890;-65
2021/09/15 04:58:14;;;;;;;6.07;1.45;;;;;;;;;;4744639;29;52198;-65
2021/09/15 05:00:40;;;;;;;7.95;1.90;;;;;;;;;;4743830;29;52390;-66
2021/09/15 05:03:06;;;;;;;8.27;1.60;;;;;;;;;;4744561;29;52407;-67
2021/09/15 05:05:32;;;;;;;10.13;1.52;;;;;;;;;;4744620;29;52307;-64
2021/09/15 05:07:58;;;;;;;7.60;1.38;;;;;;;;;;4705671;29;52779;-64
2021/09/15 05:10:27;;;;;;;12.30;1.20;;;;;;;;;;4708964;29;52356;-66
2021/09/15 05:12:54;;;;;;;3.38;1.15;;;;;;;;;;4695775;29;52623;-65
2021/09/15 05:15:20;;;;;;;5.65;1.10;;;;;;;;;;4701796;29;54304;-64
2021/09/15 05:17:46;;;;;;;4.40;1.15;;;;;;;;;;4707391;29;52717;-64
2021/09/15 05:20:16;;;;;;;7.05;1.30;;;;;;;;;;4726750;29;52284;-65
2021/09/15 05:22:46;;;;;;;5.97;1.10;;;;;;;;;;4724603;29;52310;-64
2021/09/15 05:25:14;;;;;;;3.80;0.88;;;;;;;;;;4604252;29;52501;-64
2021/09/15 05:27:40;;;;;;;7.20;1.27;;;;;;;;;;4724409;29;52397;-63
2021/09/15 05:30:07;;;;;;;12.23;1.20;;;;;;;;;;4716651;29;54101;-64
2021/09/15 05:32:33;;;;;;;4.10;1.02;;;;;;;;;;4715766;29;52294;-65
2021/09/15 05:34:59;;;;;;;4.97;0.90;;;;;;;;;;4716740;29;52467;-64
2021/09/15 05:37:25;;;;;;;3.38;0.75;;;;;;;;;;4715797;29;52273;-62
2021/09/15 05:39:51;;;;;;;2.75;1.13;;;;;;;;;;4716379;29;53419;-63
2021/09/15 05:42:17;;;;;;;5.50;1.17;;;;;;;;;;4707184;29;52169;-62
2021/09/15 05:44:43;;;;;;;20.17;5.28;;;;;;;;;;4716072;29;52232;-61
2021/09/15 05:47:09;;;;;;;14.07;3.17;;;;;;;;;;4717577;29;52280;-62
2021/09/15 05:49:35;;;;;;;13.90;2.83;;;;;;;;;;4726502;29;52358;-65
2021/09/15 05:52:01;;;;;;;13.73;3.60;;;;;;;;;;4731346;29;59451;-63
2021/09/15 05:54:27;;;;;;;52.83;14.10;;;;;;;;;;4742789;29;52303;-63
2021/09/15 05:56:53;;;;;;;53.72;13.13;;;;;;;;;;4743156;29;52302;-65
2021/09/15 05:59:19;;;;;;;47.05;9.23;;;;;;;;;;4743153;29;52267;-66
2021/09/15 06:01:45;;;;;;;28.17;6.55;;;;;;;;;;4743554;29;53666;-62
2021/09/15 06:04:11;;;;;;;21.20;5.28;;;;;;;;;;4740523;29;52196;-62
2021/09/15 06:06:37;;;;;;;17.00;4.05;;;;;;;;;;4738074;29;52274;-62
2021/09/15 06:09:03;;;;;;;13.68;3.60;;;;;;;;;;4748371;29;52499;-64
2021/09/15 06:11:29;;;;;;;10.40;2.65;;;;;;;;;;4733421;29;53205;-62
2021/09/15 06:13:55;;;;;;;23.80;5.80;;;;;;;;;;4738062;29;52752;-62
2021/09/15 06:16:22;;;;;;;21.13;4.88;;;;;;;;;;4753482;29;52270;-63
2021/09/15 06:18:48;;;;;;;25.48;5.97;;;;;;;;;;4749587;29;52313;-62
2021/09/15 06:21:14;;;;;;;12.43;3.60;;;;;;;;;;4707521;29;52164;-65
2021/09/15 06:23:40;;;;;;;11.18;2.60;;;;;;;;;;4730500;29;53336;-64
2021/09/15 06:26:06;;;;;;;16.92;2.10;;;;;;;;;;4732137;29;52185;-63
2021/09/15 06:28:32;;;;;;;10.93;2.28;;;;;;;;;;4725930;29;52265;-64
2021/09/15 06:30:58;;;;;;;19.77;4.95;;;;;;;;;;4754251;29;52377;-62
2021/09/15 06:33:24;;;;;;;14.48;3.42;;;;;;;;;;4745271;29;52271;-63
2021/09/15 06:35:51;;;;;;;11.07;2.35;;;;;;;;;;4735492;29;53251;-66
2021/09/15 06:38:18;;;;;;;11.90;2.80;;;;;;;;;;4755371;29;52409;-65
2021/09/15 06:40:44;;;;;;;6.90;2.22;;;;;;;;;;4736700;29;52486;-62
2021/09/15 06:43:10;;;;;;;16.00;2.65;;;;;;;;;;4720879;29;54110;-62
2021/09/15 06:45:36;;;;;;;11.98;2.70;;;;;;;;;;4729283;29;53491;-62
2021/09/15 06:48:02;;;;;;;18.58;5.82;;;;;;;;;;4725491;29;52346;-64
2021/09/15 06:50:28;;;;;;;16.35;5.35;;;;;;;;;;4721482;29;53393;-65
2021/09/15 06:52:54;;;;;;;10.98;3.03;;;;;;;;;;4736182;29;52286;-64
2021/09/15 06:55:20;;;;;;;8.48;2.25;;;;;;;;;;4730195;29;52354;-64
2021/09/15 06:57:46;;;;;;;13.43;2.95;;;;;;;;;;4728691;29;54190;-64
2021/09/15 07:00:13;;;;;;;23.02;3.80;;;;;;;;;;4729992;29;52061;-67
2021/09/15 07:02:39;;;;;;;39.90;11.38;;;;;;;;;;4728554;29;52246;-64
2021/09/15 07:05:05;;;;;;;63.92;19.95;;;;;;;;;;4718539;29;52579;-66
2021/09/15 07:07:31;;;;;;;46.10;13.57;;;;;;;;;;4739903;29;53932;-64
2021/09/15 07:09:57;;;;;;;138.18;40.92;;;;;;;;;;4732568;29;52311;-63
2021/09/15 07:12:23;;;;;;;124.88;38.33;;;;;;;;;;4685026;29;52377;-63
2021/09/15 07:14:49;;;;;;;98.93;29.58;;;;;;;;;;4712165;29;52691;-63
2021/09/15 07:17:15;;;;;;;75.00;23.98;;;;;;;;;;4723805;29;52251;-63
2021/09/15 07:19:41;;;;;;;68.32;24.40;;;;;;;;;;4712929;29;52300;-61
2021/09/15 07:22:07;;;;;;;54.47;19.15;;;;;;;;;;4710244;29;52193;-62
2021/09/15 07:24:33;;;;;;;52.05;14.27;;;;;;;;;;4723739;29;51962;-63
2021/09/15 07:26:59;;;;;;;26.88;8.70;;;;;;;;;;4717689;29;53119;-62
2021/09/15 07:29:25;;;;;;;15.55;4.78;;;;;;;;;;4755476;29;53386;-61
2021/09/15 07:31:51;;;;;;;12.10;3.85;;;;;;;;;;4755784;29;52462;-64
2021/09/15 07:34:17;;;;;;;14.52;3.58;;;;;;;;;;4747427;29;52901;-64
2021/09/15 07:36:43;;;;;;;7.07;2.30;;;;;;;;;;4734187;29;52371;-63
2021/09/15 07:39:09;;;;;;;5.93;1.88;;;;;;;;;;4756054;29;52359;-62
2021/09/15 07:41:35;;;;;;;11.05;1.60;;;;;;;;;;4746296;29;54006;-63
2021/09/15 07:44:01;;;;;;;6.32;1.50;;;;;;;;;;4745190;29;52394;-62
2021/09/15 07:46:27;;;;;;;5.80;1.50;;;;;;;;;;4748841;29;52105;-63
2021/09/15 07:48:53;;;;;;;7.95;1.38;;;;;;;;;;4738385;29;54034;-62
2021/09/15 07:51:19;;;;;;;24.08;6.00;;;;;;;;;;4738289;29;53427;-64
2021/09/15 07:53:45;;;;;;;27.95;10.55;;;;;;;;;;4748311;29;52227;-63
2021/09/15 07:56:11;;;;;;;40.85;12.35;;;;;;;;;;4737305;29;52181;-62
2021/09/15 07:58:38;;;;;;;38.85;10.77;;;;;;;;;;4741724;29;52392;-62
2021/09/15 08:01:04;;;;;;;35.75;10.40;;;;;;;;;;4731311;29;53500;-64
2021/09/15 08:03:30;;;;;;;30.48;9.95;;;;;;;;;;4731064;29;53312;-62
2021/09/15 08:05:57;;;;;;;28.60;7.85;;;;;;;;;;4732759;29;52420;-64
2021/09/15 08:08:24;;;;;;;20.42;5.40;;;;;;;;;;4747680;29;52363;-63
2021/09/15 08:10:50;;;;;;;9.05;2.63;;;;;;;;;;4732920;29;52901;-63
2021/09/15 08:13:20;;;;;;;10.38;2.10;;;;;;;;;;4745002;29;55536;-62
2021/09/15 08:15:47;;;;;;;6.35;1.40;;;;;;;;;;4742442;29;52597;-62
2021/09/15 08:18:13;;;;;;;3.85;1.23;;;;;;;;;;4711509;29;52621;-62
2021/09/15 08:20:45;;;;;;;3.72;1.20;;;;;;;;;;4753743;29;52299;-63
2021/09/15 08:23:15;;;;;;;3.77;0.70;;;;;;;;;;4736946;29;52206;-62
2021/09/15 08:25:41;;;;;;;7.32;0.90;;;;;;;;;;4741866;29;53935;-63
2021/09/15 08:28:07;;;;;;;5.10;0.73;;;;;;;;;;4731685;29;52335;-62
2021/09/15 08:30:33;;;;;;;8.80;0.70;;;;;;;;;;4747892;29;54525;-62
2021/09/15 08:32:59;;;;;;;6.63;0.70;;;;;;;;;;4747989;29;52903;-63
2021/09/15 08:35:25;;;;;;;1.63;0.60;;;;;;;;;;4745253;29;53476;-63
2021/09/15 08:37:52;;;;;;;16.58;2.85;;;;;;;;;;4730124;29;53892;-62
2021/09/15 08:40:18;;;;;;;9.55;1.80;;;;;;;;;;4753322;29;52389;-62
2021/09/15 08:42:44;;;;;;;11.20;1.23;;;;;;;;;;4751812;29;52403;-64
2021/09/15 08:45:12;;;;;;;5.20;1.00;;;;;;;;;;4756013;29;52207;-63
2021/09/15 08:47:47;;;;;;;51.25;14.07;;;;;;;;;;4747778;29;53896;-63
2021/09/15 08:50:14;;;;;;;48.88;18.02;;;;;;;;;;4723337;29;52204;-62
2021/09/15 08:52:40;;;;;;;47.70;12.85;;;;;;;;;;4740084;29;53027;-62
2021/09/15 08:55:07;;;;;;;46.22;14.80;;;;;;;;;;4751835;29;52295;-65
2021/09/15 08:57:33;;;;;;;35.78;11.25;;;;;;;;;;4749462;29;53744;-64
2021/09/15 09:00:00;;;;;;;26.92;8.18;;;;;;;;;;4745099;29;52363;-61
2021/09/15 09:02:26;;;;;;;22.85;5.13;;;;;;;;;;4736934;29;53243;-61
2021/09/15 09:04:57;;;;;;;14.65;3.28;;;;;;;;;;4734216;29;52370;-62
2021/09/15 09:07:24;;;;;;;13.18;2.75;;;;;;;;;;4738319;29;52190;-62
2021/09/15 09:09:52;;;;;;;8.63;1.80;;;;;;;;;;4709675;29;53116;-62
2021/09/15 09:12:20;;;;;;;5.82;1.60;;;;;;;;;;4708577;29;53227;-62
2021/09/15 09:14:46;;;;;;;6.82;1.40;;;;;;;;;;4697798;30;52285;-62
2021/09/15 09:17:33;;;;;;;4.82;1.27;;;;;;;;;;4709280;29;52424;-63
2021/09/15 09:20:32;;;;;;;20.17;4.88;;;;;;;;;;4704869;29;52923;-65
2021/09/15 09:23:17;;;;;;;32.42;8.32;;;;;;;;;;4683198;29;53072;-62
2021/09/15 09:25:58;;;;;;;24.40;5.63;;;;;;;;;;4709690;29;53252;-63
2021/09/15 09:28:28;;;;;;;19.77;4.13;;;;;;;;;;4698658;29;53068;-63
2021/09/15 09:31:01;;;;;;;11.50;3.13;;;;;;;;;;4706657;29;52161;-63
2021/09/15 09:33:27;;;;;;;10.30;2.40;;;;;;;;;;4712496;29;52614;-63
2021/09/15 09:36:02;;;;;;;6.05;1.60;;;;;;;;;;4703178;29;52300;-63
2021/09/15 09:38:39;;;;;;;7.70;1.73;;;;;;;;;;4693879;29;53990;-65
2021/09/15 09:41:20;;;;;;;8.43;1.48;;;;;;;;;;4709634;29;52369;-62
2021/09/15 09:43:51;;;;;;;3.15;1.15;;;;;;;;;;4708561;29;54184;-63
2021/09/15 09:46:20;;;;;;;5.07;0.90;;;;;;;;;;4612961;29;54306;-62
2021/09/15 09:48:54;;;;;;;5.47;1.00;;;;;;;;;;4748668;29;52352;-62
2021/09/15 09:51:39;;;;;;;15.90;3.17;;;;;;;;;;4750712;29;52350;-64
2021/09/15 09:54:26;;;;;;;43.90;6.78;;;;;;;;;;4723644;29;53252;-62
2021/09/15 09:56:54;;;;;;;35.88;7.95;;;;;;;;;;4712364;29;52930;-62
2021/09/15 09:59:21;;;;;;;30.70;4.88;;;;;;;;;;4592121;29;52241;-63
2021/09/15 10:01:49;;;;;;;17.15;3.65;;;;;;;;;;4709406;29;52323;-65
2021/09/15 10:04:17;;;;;;;18.38;3.03;;;;;;;;;;4703319;29;52271;-63
2021/09/15 10:06:44;;;;;;;15.57;2.30;;;;;;;;;;4711444;29;53809;-63
2021/09/15 10:09:10;;;;;;;9.55;1.80;;;;;;;;;;4697178;29;52557;-63
2021/09/15 10:11:39;;;;;;;12.80;1.33;;;;;;;;;;4742183;29;52756;-63
2021/09/15 10:14:08;;;;;;;11.70;1.10;;;;;;;;;;4749147;29;52464;-64
2021/09/15 10:16:41;;;;;;;7.07;0.73;;;;;;;;;;4732679;29;52632;-64
2021/09/15 10:19:07;;;;;;;5.88;1.02;;;;;;;;;;4730093;29;52766;-62
2021/09/15 10:21:34;;;;;;;5.07;0.80;;;;;;;;;;4741395;29;52182;-65
2021/09/15 10:24:02;;;;;;;8.50;1.23;;;;;;;;;;4727013;29;52542;-63
2021/09/15 10:26:41;;;;;;;4.22;0.60;;;;;;;;;;4759662;29;52282;-63
2021/09/15 10:29:31;;;;;;;1.50;0.60;;;;;;;;;;4752347;29;54023;-64
2021/09/15 10:32:10;;;;;;;6.10;0.57;;;;;;;;;;4746141;29;52409;-65
2021/09/15 10:34:36;;;;;;;5.53;0.50;;;;;;;;;;4747404;29;52283;-63
2021/09/15 10:37:12;;;;;;;9.55;0.40;;;;;;;;;;4756489;29;52471;-63
2021/09/15 10:39:58;;;;;;;10.00;0.45;;;;;;;;;;4714234;29;52368;-65
2021/09/15 10:42:46;;;;;;;1.98;0.50;;;;;;;;;;4746861;29;53992;-64
2021/09/15 10:45:25;;;;;;;7.53;0.60;;;;;;;;;;4734967;29;52286;-62
2021/09/15 10:48:20;;;;;;;5.35;0.55;;;;;;;;;;4743246;29;52472;-63
2021/09/15 10:50:46;;;;;;;2.55;0.57;;;;;;;;;;4734424;29;52004;-62
2021/09/15 10:53:13;;;;;;;5.78;0.47;;;;;;;;;;4743384;29;52514;-62
2021/09/15 10:55:47;;;;;;;11.13;0.60;;;;;;;;;;4742368;29;52379;-63
2021/09/15 10:58:15;;;;;;;3.80;0.50;;;;;;;;;;4741459;29;52308;-63
2021/09/15 11:01:15;;;;;;;11.30;0.80;;;;;;;;;;4742346;29;52165;-66
2021/09/15 11:03:53;;;;;;;3.60;0.60;;;;;;;;;;4703256;29;52443;-62
2021/09/15 11:06:21;;;;;;;5.32;0.50;;;;;;;;;;4742387;29;52235;-64
2021/09/15 11:08:49;;;;;;;4.53;0.43;;;;;;;;;;4742171;29;52399;-65
2021/09/15 11:11:21;;;;;;;2.55;0.63;;;;;;;;;;4743938;29;52399;-63
2021/09/15 11:13:50;;;;;;;6.35;0.70;;;;;;;;;;4743220;29;52416;-63
2021/09/15 11:16:41;;;;;;;5.50;0.50;;;;;;;;;;4725220;29;53036;-64
2021/09/15 11:19:10;;;;;;;4.85;0.50;;;;;;;;;;4742427;29;52181;-64
2021/09/15 11:21:43;;;;;;;1.95;0.40;;;;;;;;;;4742428;29;52429;-65
2021/09/15 11:24:14;;;;;;;4.78;0.65;;;;;;;;;;4743782;29;52243;-63
2021/09/15 11:26:51;;;;;;;4.68;0.40;;;;;;;;;;4742555;29;52423;-63
2021/09/15 11:29:55;;;;;;;4.25;0.50;;;;;;;;;;4743021;29;52202;-63
2021/09/15 11:32:21;;;;;;;1.38;0.50;;;;;;;;;;4740052;29;52357;-65
2021/09/15 11:34:50;;;;;;;3.80;0.50;;;;;;;;;;4741699;29;52360;-63
2021/09/15 11:37:29;;;;;;;8.90;0.77;;;;;;;;;;4739448;29;52339;-63
2021/09/15 11:40:00;;;;;;;4.70;0.70;;;;;;;;;;4704327;29;52805;-63
2021/09/15 11:42:30;;;;;;;3.60;0.60;;;;;;;;;;4742371;29;52291;-62
2021/09/15 11:45:09;;;;;;;3.75;0.70;;;;;;;;;;4744041;29;52304;-63
2021/09/15 11:47:35;;;;;;;6.10;0.70;;;;;;;;;;4738276;29;52057;-64
2021/09/15 11:50:20;;;;;;;1.65;0.65;;;;;;;;;;4723943;29;52330;-62
2021/09/15 11:52:59;;;;;;;2.00;0.70;;;;;;;;;;4609689;29;52457;-63
2021/09/15 11:55:25;;;;;;;4.03;0.65;;;;;;;;;;4639652;29;74058;-64
2021/09/15 11:57:58;;;;;;;5.28;0.85;;;;;;;;;;4758042;29;52367;-62
2021/09/15 12:00:24;;;;;;;5.13;0.82;;;;;;;;;;4763739;29;51912;-62
2021/09/15 12:02:51;;;;;;;3.10;0.60;;;;;;;;;;4762136;29;54094;-62
2021/09/15 12:05:20;;;;;;;2.45;0.50;;;;;;;;;;4763087;29;54005;-61
2021/09/15 12:07:47;;;;;;;1.83;0.77;;;;;;;;;;4762066;29;52455;-63
2021/09/15 12:10:13;;;;;;;4.85;0.50;;;;;;;;;;4739889;29;52367;-62
2021/09/15 12:12:40;;;;;;;10.98;0.77;;;;;;;;;;4728061;29;53949;-65
2021/09/15 12:15:08;;;;;;;10.48;1.15;;;;;;;;;;4728526;29;52303;-63
2021/09/15 12:17:36;;;;;;;5.05;0.60;;;;;;;;;;4734347;29;52177;-64
2021/09/15 12:20:05;;;;;;;5.70;0.60;;;;;;;;;;4745262;29;52235;-65
2021/09/15 12:22:32;;;;;;;1.95;0.40;;;;;;;;;;4745611;29;52324;-64
2021/09/15 12:25:12;;;;;;;3.10;0.50;;;;;;;;;;4744798;29;52566;-64
2021/09/15 12:27:43;;;;;;;3.50;0.60;;;;;;;;;;4745069;29;52406;-63
2021/09/15 12:30:13;;;;;;;9.48;1.13;;;;;;;;;;4745430;29;52172;-67
2021/09/15 12:32:43;;;;;;;10.32;0.60;;;;;;;;;;4744121;29;52258;-64
2021/09/15 12:35:25;;;;;;;6.18;0.85;;;;;;;;;;4745286;29;52219;-63
2021/09/15 12:38:09;;;;;;;4.78;1.10;;;;;;;;;;4716939;29;52339;-63
2021/09/15 12:40:36;;;;;;;7.25;0.90;;;;;;;;;;4724840;29;52297;-63
2021/09/15 12:43:08;;;;;;;6.85;0.68;;;;;;;;;;4726434;29;52406;-64
2021/09/15 12:45:37;;;;;;;6.55;0.70;;;;;;;;;;4726030;29;52302;-64
2021/09/15 12:48:04;;;;;;;6.90;1.42;;;;;;;;;;4725354;29;53500;-63
2021/09/15 12:50:33;;;;;;;3.63;0.95;;;;;;;;;;4727306;29;52342;-63
2021/09/15 12:53:08;;;;;;;6.82;0.70;;;;;;;;;;4736535;29;54419;-66
2021/09/15 12:55:51;;;;;;;5.13;0.60;;;;;;;;;;4745013;29;52393;-63
2021/09/15 12:58:25;;;;;;;6.22;0.55;;;;;;;;;;4747120;29;53889;-63
2021/09/15 13:00:51;;;;;;;7.53;0.57;;;;;;;;;;4761066;29;52279;-63
2021/09/15 13:03:17;;;;;;;4.22;0.60;;;;;;;;;;4748150;29;52325;-63
2021/09/15 13:05:49;;;;;;;11.15;0.82;;;;;;;;;;4762021;29;52223;-64
2021/09/15 13:08:20;;;;;;;1.52;0.45;;;;;;;;;;4750324;29;52282;-62
2021/09/15 13:10:48;;;;;;;4.28;0.55;;;;;;;;;;4746651;29;53831;-62
2021/09/15 13:13:20;;;;;;;3.90;0.57;;;;;;;;;;4761568;29;53442;-63
2021/09/15 13:15:47;;;;;;;5.20;0.75;;;;;;;;;;4759975;29;53452;-64
2021/09/15 13:18:14;;;;;;;4.38;0.70;;;;;;;;;;4761481;29;52323;-63
2021/09/15 13:20:40;;;;;;;49.90;2.45;;;;;;;;;;4762104;29;53499;-64
2021/09/15 13:23:07;;;;;;;36.88;2.80;;;;;;;;;;4760021;29;52667;-66
2021/09/15 13:25:33;;;;;;;17.48;1.50;;;;;;;;;;4758899;29;52289;-63
2021/09/15 13:27:59;;;;;;;10.55;1.15;;;;;;;;;;4745645;29;52320;-63
2021/09/15 13:30:25;;;;;;;7.28;1.00;;;;;;;;;;4758398;29;52254;-64
2021/09/15 13:32:51;;;;;;;2.90;1.23;;;;;;;;;;4730044;29;53858;-65
2021/09/15 13:35:18;;;;;;;10.10;1.00;;;;;;;;;;4757031;29;52311;-63
2021/09/15 13:37:44;;;;;;;3.35;0.90;;;;;;;;;;4758079;29;52435;-61
2021/09/15 13:40:11;;;;;;;6.10;1.10;;;;;;;;;;4752920;29;54229;-63
2021/09/15 13:42:37;;;;;;;6.47;0.82;;;;;;;;;;4759909;29;54379;-61
2021/09/15 13:45:05;;;;;;;9.13;1.20;;;;;;;;;;4759414;29;52251;-66
2021/09/15 13:47:31;;;;;;;5.90;1.00;;;;;;;;;;4748964;29;54248;-62
2021/09/15 13:49:58;;;;;;;4.00;1.02;;;;;;;;;;4759792;29;52318;-62
2021/09/15 13:52:25;;;;;;;4.63;1.00;;;;;;;;;;4762097;29;52175;-65
2021/09/15 13:54:51;;;;;;;4.90;1.08;;;;;;;;;;4761216;29;53763;-63
2021/09/15 13:57:18;;;;;;;13.60;1.10;;;;;;;;;;4759694;29;52310;-63
2021/09/15 13:59:44;;;;;;;8.80;1.23;;;;;;;;;;4759504;29;52280;-62
2021/09/15 14:02:11;;;;;;;6.00;1.10;;;;;;;;;;4759437;29;52210;-62
2021/09/15 14:04:37;;;;;;;4.15;1.15;;;;;;;;;;4738468;29;52933;-63
2021/09/15 14:07:04;;;;;;;6.88;1.10;;;;;;;;;;4729375;29;53493;-61
2021/09/15 14:09:30;;;;;;;1.55;0.80;;;;;;;;;;4734128;29;52800;-62
2021/09/15 14:11:57;;;;;;;3.50;0.80;;;;;;;;;;4733205;29;52374;-62
2021/09/15 14:14:23;;;;;;;1.77;0.60;;;;;;;;;;4708461;29;54506;-61
2021/09/15 14:16:49;;;;;;;2.08;0.93;;;;;;;;;;4719481;29;53975;-62
2021/09/15 14:19:15;;;;;;;6.03;0.80;;;;;;;;;;4731865;29;52464;-64
2021/09/15 14:21:42;;;;;;;2.55;0.77;;;;;;;;;;4733215;29;52389;-62
2021/09/15 14:24:08;;;;;;;5.43;0.85;;;;;;;;;;4733767;29;52150;-63
2021/09/15 14:26:36;;;;;;;4.72;0.98;;;;;;;;;;4732142;29;54143;-63
2021/09/15 14:29:03;;;;;;;5.28;0.90;;;;;;;;;;4726317;29;52340;-63
2021/09/15 14:31:29;;;;;;;3.97;0.80;;;;;;;;;;4730786;29;52341;-65
2021/09/15 14:33:55;;;;;;;3.90;0.90;;;;;;;;;;4726013;29;52336;-64
2021/09/15 14:36:21;;;;;;;6.93;0.90;;;;;;;;;;4728142;29;52368;-62
2021/09/15 14:38:48;;;;;;;5.80;0.90;;;;;;;;;;4733040;29;53396;-62
2021/09/15 14:41:17;;;;;;;6.60;0.85;;;;;;;;;;4731425;29;53118;-63
2021/09/15 14:43:44;;;;;;;4.10;0.80;;;;;;;;;;4733500;29;52401;-65
2021/09/15 14:46:10;;;;;;;14.45;1.80;;;;;;;;;;4733095;29;52330;-64
2021/09/15 14:48:37;;;;;;;4.10;0.65;;;;;;;;;;4733994;29;53325;-65